Time;durP1;ratioP1;P1;durP2;ratioP2;P2;SDS_P1;SDS_P2;PMS_P1;PMS_P2;Temp;Humidity;BMP_temperature;BMP_pressure;BME280_temperature;BME280_humidity;BME280_pressure;Samples;Min_cycle;Max_cycle;Signal;HPM_P1;HPM_P2
2021/10/09 00:01:45;;;;;;;19.60;12.25;;;;;;;14.13;78.60;102047.09;5057177;28;20048;-71
2021/10/09 00:04:12;;;;;;;20.02;12.27;;;;;;;14.20;78.91;102047.53;5034602;28;20121;-70
2021/10/09 00:06:40;;;;;;;18.38;12.05;;;;;;;14.16;78.63;102044.53;5036037;28;20053;-64
2021/10/09 00:09:09;;;;;;;19.33;13.30;;;;;;;14.01;79.54;102042.06;5037186;28;20049;-65
2021/10/09 00:11:38;;;;;;;22.30;12.63;;;;;;;13.79;80.35;102043.84;5036492;28;20057;-65
2021/10/09 00:14:10;;;;;;;20.23;12.40;;;;;;;14.07;79.71;102051.13;5037095;28;20377;-71
2021/10/09 00:16:42;;;;;;;16.35;11.13;;;;;;;14.04;78.81;102043.38;5037694;28;20050;-65
2021/10/09 00:19:10;;;;;;;19.73;11.18;;;;;;;14.13;78.65;102041.56;5038030;28;20121;-64
2021/10/09 00:21:43;;;;;;;21.23;12.50;;;;;;;14.25;78.04;102039.13;5038162;28;20394;-71
2021/10/09 00:24:16;;;;;;;22.13;12.88;;;;;;;14.33;78.27;102038.47;5036853;28;20635;-71
2021/10/09 00:26:44;;;;;;;16.77;11.98;;;;;;;14.23;77.42;102036.66;5038064;28;20421;-70
2021/10/09 00:29:12;;;;;;;18.58;12.55;;;;;;;14.29;78.05;102037.41;5053358;28;20049;-71
2021/10/09 00:31:40;;;;;;;20.17;12.07;;;;;;;14.18;78.00;102045.06;5036835;28;20083;-70
2021/10/09 00:34:07;;;;;;;20.95;12.90;;;;;;;14.18;78.23;102038.69;5037805;28;20056;-72
2021/10/09 00:36:34;;;;;;;18.85;12.90;;;;;;;13.91;78.91;102036.72;5020085;28;20049;-65
2021/10/09 00:39:03;;;;;;;18.35;11.80;;;;;;;14.00;79.08;102040.41;5041411;28;20057;-71
2021/10/09 00:41:32;;;;;;;21.85;12.77;;;;;;;14.16;78.43;102044.53;5057503;28;20541;-71
2021/10/09 00:44:15;;;;;;;20.92;12.82;;;;;;;14.05;78.47;102039.50;5057645;28;20056;-71
2021/10/09 00:46:44;;;;;;;21.25;12.73;;;;;;;14.07;78.78;102042.81;5056035;28;20041;-66
2021/10/09 00:49:15;;;;;;;18.13;12.40;;;;;;;13.94;79.39;102041.63;5057579;28;20052;-64
2021/10/09 00:51:44;;;;;;;18.23;12.60;;;;;;;14.07;78.59;102040.81;5023446;28;20492;-72
2021/10/09 00:54:13;;;;;;;21.85;13.13;;;;;;;13.72;80.22;102041.44;5055261;28;20079;-70
2021/10/09 00:56:41;;;;;;;19.63;12.57;;;;;;;13.92;79.37;102040.28;5057189;28;20048;-71
2021/10/09 00:59:09;;;;;;;19.35;12.65;;;;;;;13.42;81.31;102039.97;5056059;28;20049;-72
2021/10/09 01:01:37;;;;;;;19.38;12.27;;;;;;;13.51;81.74;102037.38;5055408;28;20408;-71
2021/10/09 01:04:06;;;;;;;18.50;12.57;;;;;;;13.54;81.72;102034.84;5039601;28;20057;-70
2021/10/09 01:06:33;;;;;;;19.52;12.55;;;;;;;13.89;79.98;102032.59;5035792;28;20049;-70
2021/10/09 01:09:03;;;;;;;19.10;12.48;;;;;;;13.80;80.13;102042.72;5052529;28;20045;-70
2021/10/09 01:11:31;;;;;;;20.88;12.88;;;;;;;13.48;81.05;102040.72;5035747;28;20056;-70
2021/10/09 01:14:02;;;;;;;21.90;12.75;;;;;;;13.51;81.54;102037.38;5052021;28;20057;-70
2021/10/09 01:16:30;;;;;;;18.13;12.60;;;;;;;14.01;80.33;102035.69;5052349;28;20496;-72
2021/10/09 01:18:59;;;;;;;20.20;13.15;;;;;;;13.90;79.14;102039.75;5035770;28;20061;-71
2021/10/09 01:21:41;;;;;;;20.50;13.10;;;;;;;13.63;80.29;102037.75;5035569;28;20053;-72
2021/10/09 01:24:09;;;;;;;17.65;12.93;;;;;;;13.55;81.15;102039.22;5035669;28;20381;-73
2021/10/09 01:26:37;;;;;;;19.50;12.63;;;;;;;13.66;80.71;102033.53;5052336;28;20413;-71
2021/10/09 01:29:10;;;;;;;18.70;13.27;;;;;;;13.71;80.36;102036.22;5035306;28;20060;-71
2021/10/09 01:31:40;;;;;;;19.10;13.20;;;;;;;13.83;79.07;102037.38;5051927;28;20409;-70
2021/10/09 01:34:08;;;;;;;19.20;13.18;;;;;;;13.69;80.50;102036.50;5036680;28;20049;-71
2021/10/09 01:36:38;;;;;;;20.58;12.95;;;;;;;13.61;79.96;102034.44;5035491;28;20377;-70
2021/10/09 01:39:07;;;;;;;19.42;12.70;;;;;;;13.52;80.94;102037.06;5040983;28;20388;-71
2021/10/09 01:41:46;;;;;;;19.05;12.85;;;;;;;13.70;80.52;102031.81;5055240;28;20049;-70
2021/10/09 01:44:15;;;;;;;19.80;13.43;;;;;;;13.88;79.86;102028.97;5055394;28;20060;-63
2021/10/09 01:46:44;;;;;;;20.08;13.15;;;;;;;13.45;80.56;102028.34;5055022;28;20064;-63
2021/10/09 01:49:12;;;;;;;20.58;13.70;;;;;;;13.70;80.10;102029.03;5055097;28;20052;-64
2021/10/09 01:51:39;;;;;;;18.50;13.25;;;;;;;13.29;81.50;102032.44;5038560;28;20049;-71
2021/10/09 01:54:09;;;;;;;21.23;15.07;;;;;;;13.15;81.96;102027.94;5056782;28;20128;-70
2021/10/09 01:56:39;;;;;;;21.95;13.95;;;;;;;13.29;81.87;102029.69;5055085;28;20053;-70
2021/10/09 01:59:08;;;;;;;19.67;13.73;;;;;;;13.36;81.61;102024.59;5039061;28;20060;-70
2021/10/09 02:01:40;;;;;;;18.05;13.45;;;;;;;13.65;80.36;102027.16;5055301;28;20053;-71
2021/10/09 02:04:08;;;;;;;23.23;13.60;;;;;;;13.60;80.11;102026.44;5055187;28;20048;-71
2021/10/09 02:06:42;;;;;;;20.92;12.50;;;;;;;13.69;79.41;102022.66;5013419;28;20045;-71
2021/10/09 02:09:15;;;;;;;18.50;13.32;;;;;;;13.65;79.58;102024.38;5034745;28;20072;-71
2021/10/09 02:11:48;;;;;;;22.77;14.10;;;;;;;13.41;80.05;102031.97;5035366;28;20053;-70
2021/10/09 02:27:38;;;;;;;18.92;14.00;;;;;;;13.43;80.26;102011.19;5051125;28;20361;-70
2021/10/09 02:30:06;;;;;;;19.25;13.43;;;;;;;13.76;78.75;102019.50;5051270;28;20052;-72
2021/10/09 02:32:34;;;;;;;22.10;14.88;;;;;;;13.55;78.75;102013.50;5034252;28;20054;-71
2021/10/09 02:35:03;;;;;;;21.50;14.43;;;;;;;13.63;78.92;102012.00;5033916;28;20053;-71
2021/10/09 02:37:30;;;;;;;21.52;14.65;;;;;;;13.49;79.31;102023.81;5035162;28;20054;-70
2021/10/09 02:39:57;;;;;;;19.13;14.30;;;;;;;13.37;80.43;102022.66;5048508;28;20049;-72
2021/10/09 02:42:24;;;;;;;19.05;14.05;;;;;;;13.62;79.74;102018.63;5054051;28;20404;-71
2021/10/09 02:44:52;;;;;;;22.08;14.88;;;;;;;13.85;78.08;102020.47;5053975;28;20093;-71
2021/10/09 02:47:20;;;;;;;22.80;14.60;;;;;;;13.23;80.21;102019.78;5054052;28;20049;-71
2021/10/09 02:49:47;;;;;;;21.35;14.48;;;;;;;13.46;80.11;102018.06;5054253;28;20057;-71
2021/10/09 02:52:15;;;;;;;24.13;14.13;;;;;;;13.31;80.21;102012.78;5053873;28;20117;-71
2021/10/09 02:54:42;;;;;;;23.50;15.20;;;;;;;13.16;80.84;102016.59;5055298;28;20049;-71
2021/10/09 02:57:09;;;;;;;22.77;15.40;;;;;;;13.19;80.52;102023.47;5053946;28;20056;-71
2021/10/09 02:59:37;;;;;;;22.73;14.75;;;;;;;13.11;81.56;102013.91;5055299;28;20053;-71
2021/10/09 03:02:04;;;;;;;23.30;16.55;;;;;;;13.03;81.68;102019.28;5036590;28;20056;-70
2021/10/09 03:04:32;;;;;;;19.70;14.98;;;;;;;12.97;82.04;102014.91;5037376;28;20060;-70
2021/10/09 03:07:00;;;;;;;23.95;15.20;;;;;;;13.06;81.57;102018.66;5033280;28;20057;-71
2021/10/09 03:09:28;;;;;;;21.35;15.43;;;;;;;12.87;82.52;102015.88;5030488;28;20397;-70
2021/10/09 03:11:56;;;;;;;22.13;15.20;;;;;;;13.13;81.59;102014.41;5014091;28;20050;-71
2021/10/09 03:14:24;;;;;;;24.63;16.30;;;;;;;13.36;80.43;102009.94;5014140;28;20524;-70
2021/10/09 03:16:52;;;;;;;26.40;15.25;;;;;;;13.60;79.36;102009.84;5030437;28;20050;-70
2021/10/09 03:19:19;;;;;;;21.23;15.20;;;;;;;13.34;79.61;102015.75;5030477;28;20516;-70
2021/10/09 03:21:47;;;;;;;24.92;15.48;;;;;;;13.24;80.22;102015.94;5030594;28;20141;-70
2021/10/09 03:24:15;;;;;;;24.25;16.05;;;;;;;13.25;80.58;102006.50;5032072;28;20049;-71
2021/10/09 03:26:42;;;;;;;23.77;15.60;;;;;;;13.23;80.02;102017.03;5023415;28;20053;-71
2021/10/09 03:29:10;;;;;;;20.98;15.73;;;;;;;13.07;80.96;102018.41;5035596;28;20642;-69
2021/10/09 03:31:38;;;;;;;22.30;15.65;;;;;;;13.15;80.34;102012.19;5001286;28;20073;-70
2021/10/09 03:34:05;;;;;;;23.33;16.10;;;;;;;12.86;81.71;102018.94;5018032;28;20061;-71
2021/10/09 03:36:33;;;;;;;20.63;15.45;;;;;;;12.83;82.42;102019.53;5018384;28;20050;-71
2021/10/09 03:39:02;;;;;;;23.33;16.25;;;;;;;12.73;82.72;102026.00;5009243;28;20052;-70
2021/10/09 03:41:31;;;;;;;32.03;16.42;;;;;;;12.80;82.08;102012.66;5057462;28;20069;-70
2021/10/09 03:43:58;;;;;;;22.25;15.77;;;;;;;12.87;82.11;102020.56;5057336;28;20049;-72
2021/10/09 03:46:28;;;;;;;24.05;16.70;;;;;;;12.84;81.88;102018.41;5040451;28;20056;-64
2021/10/09 03:54:28;;;;;;;28.83;18.40;;;;;;;12.20;85.68;102014.19;5057170;28;20049;-64
2021/10/09 03:56:55;;;;;;;23.92;17.65;;;;;;;12.50;84.52;102015.78;5057221;28;20064;-64
2021/10/09 03:59:22;;;;;;;24.92;17.70;;;;;;;12.28;85.83;102018.25;5040907;28;20053;-69
2021/10/09 04:01:50;;;;;;;26.58;18.92;;;;;;;12.43;84.99;102018.91;5056893;28;20046;-70
2021/10/09 04:04:17;;;;;;;25.92;18.25;;;;;;;12.28;86.01;102012.72;5040820;28;20052;-71
2021/10/09 04:06:45;;;;;;;27.42;19.33;;;;;;;12.10;86.91;102017.06;5029730;28;20046;-71
2021/10/09 04:09:12;;;;;;;27.67;18.75;;;;;;;12.16;87.01;102015.91;5038317;28;20052;-64
2021/10/09 04:11:40;;;;;;;27.00;18.85;;;;;;;12.37;85.86;102017.34;5036916;28;20054;-71
2021/10/09 04:14:07;;;;;;;25.63;17.63;;;;;;;12.48;85.04;102017.22;5038360;28;20057;-72
2021/10/09 04:16:34;;;;;;;29.63;19.75;;;;;;;12.31;84.81;102014.91;5036664;28;20152;-64
2021/10/09 04:19:02;;;;;;;29.23;19.30;;;;;;;12.31;85.59;102025.97;5053495;28;20056;-65
2021/10/09 04:21:29;;;;;;;27.60;18.55;;;;;;;12.43;85.14;102013.38;5037218;28;20152;-72
2021/10/09 04:23:57;;;;;;;26.27;19.38;;;;;;;12.21;85.90;102010.31;5037511;28;20057;-71
2021/10/09 04:26:25;;;;;;;30.83;19.40;;;;;;;12.31;85.61;102012.97;5037285;28;20400;-72
2021/10/09 04:28:52;;;;;;;34.72;20.65;;;;;;;12.17;85.92;102017.53;5020850;28;20068;-71
2021/10/09 04:31:19;;;;;;;33.58;21.55;;;;;;;12.30;85.67;102014.09;5053460;28;20060;-70
2021/10/09 04:33:47;;;;;;;27.60;19.77;;;;;;;12.60;84.61;102017.63;5053060;28;20054;-70
2021/10/09 04:36:17;;;;;;;28.50;20.55;;;;;;;12.66;83.65;102014.47;5019783;28;20052;-70
2021/10/09 04:38:46;;;;;;;30.98;20.35;;;;;;;12.70;83.51;102014.72;5039154;28;20033;-63
2021/10/09 04:41:13;;;;;;;31.63;20.40;;;;;;;12.53;83.80;102004.16;5056430;28;20060;-64
2021/10/09 04:43:40;;;;;;;36.60;20.70;;;;;;;12.62;83.74;102007.91;5056072;28;20049;-65
2021/10/09 04:46:08;;;;;;;33.35;20.30;;;;;;;12.76;82.89;102003.28;5056349;28;20054;-65
2021/10/09 04:48:36;;;;;;;29.77;20.80;;;;;;;12.54;83.34;102005.78;5056295;28;20053;-70
2021/10/09 04:51:04;;;;;;;29.27;21.05;;;;;;;12.15;84.84;102000.44;5057633;28;20060;-64
2021/10/09 04:53:32;;;;;;;32.35;20.52;;;;;;;12.14;85.68;102012.63;5055753;28;20055;-64
2021/10/09 04:55:59;;;;;;;30.52;21.42;;;;;;;12.23;84.88;102010.03;5056176;28;20067;-64
2021/10/09 04:58:32;;;;;;;29.92;21.08;;;;;;;12.13;85.25;102001.88;5055988;28;20053;-64
2021/10/09 05:00:59;;;;;;;33.47;22.20;;;;;;;11.95;86.00;101995.16;5055904;28;20053;-71
2021/10/09 05:03:27;;;;;;;30.35;21.55;;;;;;;12.10;85.34;101994.16;5039175;28;20052;-71
2021/10/09 05:05:54;;;;;;;31.02;21.85;;;;;;;12.05;85.83;101994.19;5057652;28;20653;-71
2021/10/09 05:08:23;;;;;;;31.83;21.90;;;;;;;12.03;85.37;102000.00;5020008;28;20497;-71
2021/10/09 05:10:50;;;;;;;31.48;22.90;;;;;;;12.03;85.87;101999.22;5035712;28;20049;-71
2021/10/09 05:13:20;;;;;;;;;;;;;;;12.13;84.87;102002.66;5036797;28;20053;-70
2021/10/09 05:15:47;;;;;;;35.45;21.80;;;;;;;12.10;85.46;102002.47;5035787;28;19928;-72
2021/10/09 05:18:19;;;;;;;34.13;22.15;;;;;;;12.05;86.04;101996.97;5052812;28;20394;-71
2021/10/09 05:20:46;;;;;;;32.97;22.00;;;;;;;12.01;85.55;101999.47;5035723;28;20053;-70
2021/10/09 05:23:17;;;;;;;35.80;21.95;;;;;;;11.89;85.93;101996.28;5051889;28;20061;-71
2021/10/09 05:25:50;;;;;;;35.53;22.27;;;;;;;11.78;86.68;102007.72;5052403;28;20060;-71
2021/10/09 05:28:27;;;;;;;30.67;22.40;;;;;;;11.69;87.57;102003.94;5035746;28;20045;-70
2021/10/09 05:30:57;;;;;;;35.80;22.48;;;;;;;11.64;87.15;102001.19;5052106;28;20053;-70
2021/10/09 05:35:59;;;;;;;38.38;24.33;;;;;;;11.49;88.20;102004.09;5052244;28;20516;-65
2021/10/09 05:38:27;;;;;;;36.33;23.88;;;;;;;11.52;88.29;102011.78;5036749;28;20046;-71
2021/10/09 05:40:56;;;;;;;34.47;23.33;;;;;;;11.51;88.34;102007.38;5038022;28;20053;-70
2021/10/09 05:43:28;;;;;;;35.33;23.27;;;;;;;11.86;87.37;102020.91;5055085;28;20052;-64
2021/10/09 05:45:57;;;;;;;30.65;22.45;;;;;;;11.46;88.54;102012.94;5055342;28;20060;-64
2021/10/09 05:48:25;;;;;;;34.97;23.15;;;;;;;11.38;88.81;102017.16;5054935;28;20048;-64
2021/10/09 05:51:06;;;;;;;36.45;23.67;;;;;;;11.30;89.61;102017.75;5055294;28;20651;-63
2021/10/09 06:25:29;;;;;;;34.42;24.08;;;;;;;11.93;86.14;102032.44;5014016;28;20061;-70
2021/10/09 06:59:37;;;;;;;34.85;24.75;;;;;;;11.59;86.49;102086.78;5019665;28;20077;-64
2021/10/09 07:02:04;;;;;;;36.65;24.13;;;;;;;11.49;88.07;102086.88;5035392;28;20057;-71
2021/10/09 07:04:33;;;;;;;35.80;24.45;;;;;;;11.45;87.58;102094.06;5017724;28;20049;-64
2021/10/09 07:07:05;;;;;;;37.92;25.38;;;;;;;11.57;87.37;102095.38;5049920;28;20064;-71
2021/10/09 07:09:48;;;;;;;42.88;25.10;;;;;;;11.57;87.11;102103.66;5019949;28;20042;-65
2021/10/09 07:12:20;;;;;;;38.55;24.45;;;;;;;11.77;87.31;102105.47;5034073;28;20049;-72
2021/10/09 07:14:48;;;;;;;39.08;24.95;;;;;;;11.71;86.45;102101.94;5016301;28;20137;-70
2021/10/09 07:17:18;;;;;;;36.65;23.98;;;;;;;12.01;85.64;102101.66;5000326;28;20054;-71
2021/10/09 07:19:47;;;;;;;35.33;23.95;;;;;;;12.00;84.79;102101.94;5022007;28;20112;-72
2021/10/09 07:22:15;;;;;;;35.28;23.35;;;;;;;11.96;84.60;102098.16;5033297;28;20045;-62
2021/10/09 07:25:03;;;;;;;40.08;25.45;;;;;;;12.05;84.02;102107.44;5031626;28;20064;-63
2021/10/09 07:27:32;;;;;;;37.00;23.73;;;;;;;12.30;83.16;102108.03;5031935;28;20049;-63
2021/10/09 07:30:01;;;;;;;32.97;23.13;;;;;;;12.01;83.82;102107.19;4998681;28;20046;-63
2021/10/09 07:32:28;;;;;;;36.33;24.13;;;;;;;11.98;84.07;102113.28;5032959;28;20045;-64
2021/10/09 07:34:56;;;;;;;41.20;24.02;;;;;;;12.17;83.16;102111.47;5035615;28;20365;-62
2021/10/09 07:37:23;;;;;;;34.08;24.23;;;;;;;12.16;83.27;102117.28;5034381;28;20050;-64
2021/10/09 07:39:50;;;;;;;34.25;23.63;;;;;;;12.18;83.39;102120.59;5020184;28;20041;-63
2021/10/09 07:42:18;;;;;;;36.40;25.63;;;;;;;11.92;83.60;102119.16;5032122;28;20044;-63
2021/10/09 07:44:49;;;;;;;33.28;24.50;;;;;;;12.32;83.17;102114.09;5027739;28;20046;-72
2021/10/09 07:47:18;;;;;;;33.80;24.98;;;;;;;11.88;83.75;102124.44;5025760;28;20405;-71
2021/10/09 07:49:45;;;;;;;35.30;24.10;;;;;;;12.08;83.29;102128.97;5020487;28;20050;-64
2021/10/09 07:52:14;;;;;;;36.78;24.85;;;;;;;12.20;82.71;102130.22;5017452;28;20373;-66
2021/10/09 07:54:41;;;;;;;36.90;24.38;;;;;;;11.97;83.82;102130.16;5033137;28;20041;-71
2021/10/09 07:57:09;;;;;;;35.75;25.73;;;;;;;12.06;83.65;102131.19;5030146;28;20405;-70
2021/10/09 07:59:36;;;;;;;38.60;25.00;;;;;;;11.97;83.53;102132.91;5029868;28;20049;-65
2021/10/09 08:02:05;;;;;;;35.28;25.00;;;;;;;11.86;83.75;102134.09;5007129;28;20045;-72
2021/10/09 08:04:32;;;;;;;37.35;25.90;;;;;;;11.98;83.48;102138.16;5032187;28;20050;-71
2021/10/09 08:07:00;;;;;;;38.20;24.63;;;;;;;11.98;83.14;102140.06;5015927;28;20049;-73
2021/10/09 08:09:31;;;;;;;39.00;26.17;;;;;;;11.83;83.58;102142.97;5014435;28;20042;-62
2021/10/09 08:11:58;;;;;;;38.72;24.67;;;;;;;12.06;82.98;102143.06;5025724;28;20046;-65
2021/10/09 08:14:27;;;;;;;40.03;25.35;;;;;;;11.96;83.17;102145.88;5032365;28;20586;-66
2021/10/09 08:16:54;;;;;;;36.20;25.15;;;;;;;11.84;83.89;102139.06;5036519;28;20789;-64
2021/10/09 08:19:21;;;;;;;37.03;26.50;;;;;;;12.09;83.32;102149.94;5033037;28;20042;-62
2021/10/09 08:21:50;;;;;;;37.05;25.38;;;;;;;12.00;83.13;102135.09;5038047;28;20045;-64
2021/10/09 08:40:14;;;;;;;35.75;24.23;;;;;;;12.86;78.57;102133.16;5052926;28;20041;-64
2021/10/09 08:42:42;;;;;;;35.72;25.20;;;;;;;12.73;78.93;102124.69;5057728;28;20052;-64
2021/10/09 08:45:10;;;;;;;32.78;24.65;;;;;;;12.54;79.18;102138.47;5057432;28;20054;-64
2021/10/09 08:47:38;;;;;;;37.05;25.65;;;;;;;12.54;79.64;102129.34;5046909;28;20116;-64
2021/10/09 08:50:08;;;;;;;35.38;24.50;;;;;;;12.36;79.83;102123.44;5036958;28;20076;-64
2021/10/09 08:52:36;;;;;;;34.63;23.40;;;;;;;12.68;78.91;102127.53;5037534;28;20056;-64
2021/10/09 08:55:24;;;;;;;34.45;24.63;;;;;;;12.80;77.70;102126.00;5037501;28;20041;-64
2021/10/09 08:57:52;;;;;;;35.72;23.88;;;;;;;12.79;78.02;102129.91;5037520;28;20075;-65
2021/10/09 09:00:45;;;;;;;34.85;23.15;;;;;;;13.17;77.69;102126.16;5037614;28;20056;-64
2021/10/09 09:03:17;;;;;;;38.00;23.67;;;;;;;13.53;76.81;102123.69;5037019;28;20413;-64
2021/10/09 09:06:08;;;;;;;38.67;24.70;;;;;;;13.02;76.38;102119.97;5037131;28;20072;-66
2021/10/09 09:33:41;;;;;;;31.80;24.15;;;;;;;13.58;74.11;102121.69;5034399;28;20049;-65
2021/10/09 09:38:55;;;;;;;39.25;24.30;;;;;;;13.62;73.90;102124.69;5039437;28;20037;-67
2021/10/09 09:41:24;;;;;;;33.55;23.60;;;;;;;13.52;74.04;102127.59;5039214;28;20057;-68
2021/10/09 09:43:59;;;;;;;38.20;24.45;;;;;;;13.52;74.24;102125.66;5018250;28;20516;-67
2021/10/09 09:46:26;;;;;;;45.80;25.27;;;;;;;13.83;74.37;102122.41;5035551;28;20052;-67
2021/10/09 09:48:54;;;;;;;32.20;23.58;;;;;;;13.83;73.54;102114.94;5034783;28;20049;-68
2021/10/09 09:51:22;;;;;;;37.75;23.83;;;;;;;14.19;72.64;102109.63;5029799;28;20049;-67
2021/10/09 09:53:50;;;;;;;33.38;22.15;;;;;;;14.41;72.16;102107.03;5033767;28;20048;-68
2021/10/09 09:56:18;;;;;;;31.83;23.17;;;;;;;13.90;72.23;102107.06;5035617;28;20438;-69
2021/10/09 09:58:52;;;;;;;31.83;22.30;;;;;;;14.06;71.85;102099.31;5035852;28;20052;-66
2021/10/09 10:01:19;;;;;;;28.27;20.83;;;;;;;13.78;72.47;102103.94;5033206;28;20056;-68
2021/10/09 10:03:48;;;;;;;32.10;20.35;;;;;;;13.87;71.92;102106.84;5034813;28;20048;-68
2021/10/09 10:06:16;;;;;;;32.28;22.13;;;;;;;14.12;71.76;102092.56;5033967;28;20469;-66
2021/10/09 10:08:43;;;;;;;36.17;21.95;;;;;;;14.17;71.47;102100.81;5022607;28;20053;-70
2021/10/09 10:11:12;;;;;;;30.83;20.75;;;;;;;14.08;70.26;102091.53;5033592;28;20045;-67
2021/10/09 10:13:42;;;;;;;34.35;22.63;;;;;;;13.94;70.79;102087.91;5033694;28;20050;-71
2021/10/09 10:16:10;;;;;;;30.63;20.15;;;;;;;14.24;70.59;102090.94;5035139;28;20056;-73
2021/10/09 10:18:44;;;;;;;30.20;20.92;;;;;;;14.43;70.06;102090.94;5032982;28;20057;-67
2021/10/09 10:21:16;;;;;;;29.90;20.70;;;;;;;15.02;69.15;102090.00;5033323;28;20539;-67
2021/10/09 10:23:47;;;;;;;29.50;20.30;;;;;;;15.01;66.71;102086.41;5031523;28;20045;-71
2021/10/09 10:26:20;;;;;;;31.90;20.10;;;;;;;14.79;67.39;102086.31;5030253;28;20416;-71
2021/10/09 10:29:13;;;;;;;30.38;20.48;;;;;;;14.94;67.24;102082.44;5035390;28;20499;-71
2021/10/09 10:32:12;;;;;;;26.42;18.85;;;;;;;15.11;66.49;102089.00;5030003;28;20042;-69
2021/10/09 10:34:41;;;;;;;29.58;19.10;;;;;;;14.96;66.25;102088.50;5044788;28;20666;-67
2021/10/09 10:37:32;;;;;;;27.45;19.38;;;;;;;14.93;66.02;102084.38;5033909;28;20485;-67
2021/10/09 10:39:59;;;;;;;28.30;20.30;;;;;;;14.87;67.03;102082.81;5033880;28;20050;-67
2021/10/09 10:42:29;;;;;;;28.13;19.35;;;;;;;15.27;66.20;102084.72;5017504;28;20057;-68
2021/10/09 10:47:57;;;;;;;26.95;17.50;;;;;;;14.97;65.66;102095.66;5032786;28;20049;-68
2021/10/09 10:53:15;;;;;;;26.17;18.20;;;;;;;15.08;65.26;102081.25;5032796;28;20049;-67
2021/10/09 10:56:06;;;;;;;23.33;16.55;;;;;;;15.07;65.00;102071.31;5032163;28;20056;-68
2021/10/09 10:58:35;;;;;;;26.20;17.25;;;;;;;15.40;64.41;102072.81;4999110;28;20053;-67
2021/10/09 11:01:14;;;;;;;26.58;17.63;;;;;;;15.50;63.83;102068.97;5033052;28;20045;-68
2021/10/09 11:04:08;;;;;;;26.52;17.63;;;;;;;15.45;63.24;102075.47;5041940;28;20537;-66
2021/10/09 11:06:36;;;;;;;24.52;17.00;;;;;;;15.33;62.98;102071.56;5032466;28;20049;-68
2021/10/09 11:09:04;;;;;;;24.23;15.07;;;;;;;15.52;62.39;102067.53;5033107;28;20041;-69
2021/10/09 11:11:43;;;;;;;20.92;14.65;;;;;;;15.49;60.58;102072.88;5034269;28;20045;-72
2021/10/09 11:14:25;;;;;;;22.02;13.48;;;;;;;15.43;59.49;102079.69;5033167;28;20558;-73
2021/10/09 11:17:01;;;;;;;19.40;13.65;;;;;;;15.49;59.90;102068.16;5037926;28;20064;-71
2021/10/09 11:19:50;;;;;;;26.75;14.60;;;;;;;15.69;59.76;102059.31;5033377;28;20084;-72
2021/10/09 11:22:19;;;;;;;21.48;13.77;;;;;;;16.02;58.89;102056.28;5032380;28;20432;-73
2021/10/09 11:24:50;;;;;;;20.67;13.82;;;;;;;15.70;58.97;102065.72;5033800;28;20040;-71
2021/10/09 11:27:18;;;;;;;20.42;12.93;;;;;;;15.92;58.59;102057.34;5027895;28;20450;-66
2021/10/09 11:30:08;;;;;;;18.48;13.30;;;;;;;15.78;58.52;102060.22;5033828;28;20050;-65
2021/10/09 11:32:39;;;;;;;17.38;12.40;;;;;;;15.78;58.55;102057.44;5027451;28;20497;-64
2021/10/09 11:35:08;;;;;;;19.60;12.93;;;;;;;15.67;58.33;102061.59;5034303;28;20053;-73
2021/10/09 11:37:45;;;;;;;21.23;12.55;;;;;;;15.76;57.97;102056.94;5031542;28;20060;-64
2021/10/09 11:40:12;;;;;;;17.60;11.38;;;;;;;15.87;57.45;102048.31;5033955;28;20064;-66
2021/10/09 11:42:49;;;;;;;22.38;13.23;;;;;;;15.83;58.66;102055.69;5022456;28;20064;-66
2021/10/09 11:53:37;;;;;;;20.25;11.65;;;;;;;16.07;56.49;102051.44;5038622;28;20531;-74
2021/10/09 11:56:07;;;;;;;14.00;9.85;;;;;;;16.14;55.01;102048.19;5037279;28;20497;-73
2021/10/09 11:58:47;;;;;;;16.13;10.15;;;;;;;16.03;54.64;102050.41;5036068;28;20057;-73
2021/10/09 12:01:41;;;;;;;15.05;11.18;;;;;;;16.05;54.52;102047.31;5039482;28;20052;-72
2021/10/09 12:04:22;;;;;;;16.48;11.48;;;;;;;15.97;55.86;102046.13;5022720;28;20049;-74
2021/10/09 12:06:51;;;;;;;15.70;10.25;;;;;;;16.02;55.43;102046.00;5016225;28;20607;-66
2021/10/09 12:09:44;;;;;;;15.80;11.32;;;;;;;16.20;55.66;102039.38;5033280;28;20053;-66
2021/10/09 12:12:20;;;;;;;22.58;12.13;;;;;;;16.25;56.23;102030.09;5036119;28;20045;-72
2021/10/09 12:14:49;;;;;;;23.10;11.85;;;;;;;16.32;56.41;102034.06;5037663;28;20045;-71
2021/10/09 12:17:20;;;;;;;16.30;11.13;;;;;;;16.45;56.61;102027.59;5036233;28;20048;-72
2021/10/09 12:19:58;;;;;;;20.08;12.82;;;;;;;16.48;57.43;102034.47;5038395;28;20061;-72
2021/10/09 12:22:27;;;;;;;17.45;11.43;;;;;;;16.50;56.27;102029.41;5035531;28;20060;-68
2021/10/09 12:24:55;;;;;;;14.55;10.48;;;;;;;16.55;55.09;102021.75;5037777;28;20485;-72
2021/10/09 12:27:26;;;;;;;16.02;10.13;;;;;;;16.74;54.24;102022.31;5035927;28;20493;-73
2021/10/09 12:29:58;;;;;;;15.23;10.48;;;;;;;16.75;54.32;102018.38;5032077;28;20532;-65
2021/10/09 12:32:28;;;;;;;16.70;13.35;;;;;;;16.81;53.89;102016.25;5035487;28;20409;-66
2021/10/09 12:35:03;;;;;;;17.17;12.40;;;;;;;16.76;54.09;102019.19;5036539;28;20056;-67
2021/10/09 12:37:33;;;;;;;18.10;10.80;;;;;;;16.65;53.96;102021.44;5034514;28;20045;-66
2021/10/09 12:40:12;;;;;;;13.50;8.98;;;;;;;16.45;52.70;102021.19;5042045;28;20053;-66
2021/10/09 12:42:56;;;;;;;17.80;9.40;;;;;;;16.47;52.65;102014.22;5037506;28;20453;-73
2021/10/09 12:45:25;;;;;;;16.42;9.68;;;;;;;16.59;52.68;102005.25;5018742;28;20069;-73
2021/10/09 12:47:55;;;;;;;14.13;9.63;;;;;;;16.71;53.15;102009.03;5037180;28;20567;-74
2021/10/09 12:50:28;;;;;;;20.57;10.27;;;;;;;16.83;53.26;102002.84;5036072;28;20049;-74
2021/10/09 12:52:56;;;;;;;16.20;9.43;;;;;;;16.89;53.74;102001.56;5036447;28;20148;-73
2021/10/09 12:55:26;;;;;;;16.92;10.23;;;;;;;17.23;53.77;101990.44;5036815;28;20053;-73
2021/10/09 12:57:56;;;;;;;17.08;10.43;;;;;;;17.45;52.91;101990.28;5036463;28;20053;-73
2021/10/09 13:00:25;;;;;;;14.90;8.82;;;;;;;17.05;51.26;101999.13;5035461;28;20057;-73
2021/10/09 13:02:53;;;;;;;14.18;9.02;;;;;;;16.95;51.29;101994.69;5036342;28;20041;-74
2021/10/09 13:05:22;;;;;;;11.25;7.78;;;;;;;16.74;50.54;101990.88;5036684;28;20504;-73
2021/10/09 13:07:49;;;;;;;15.13;8.50;;;;;;;16.82;51.64;101988.09;5036600;28;20053;-73
2021/10/09 13:10:18;;;;;;;14.30;8.55;;;;;;;16.88;51.12;101984.03;5036450;28;20056;-75
2021/10/09 13:12:46;;;;;;;14.25;9.57;;;;;;;17.05;51.84;101988.78;5034684;28;20052;-73
2021/10/09 13:15:17;;;;;;;19.20;9.93;;;;;;;17.14;52.32;101986.84;5034587;28;20057;-74
2021/10/09 13:17:46;;;;;;;16.20;9.90;;;;;;;17.39;51.63;101980.47;5035359;28;20041;-75
2021/10/09 13:20:14;;;;;;;16.42;9.85;;;;;;;17.30;51.86;101984.38;5036681;28;20049;-74
2021/10/09 13:22:42;;;;;;;15.77;9.43;;;;;;;17.13;52.26;101974.06;5034767;28;20456;-75
2021/10/09 13:25:27;;;;;;;15.30;9.88;;;;;;;17.15;52.38;101988.50;5035918;28;20133;-74
2021/10/09 13:27:55;;;;;;;16.70;9.55;;;;;;;17.07;52.29;101982.91;5035817;28;20057;-72
2021/10/09 13:30:22;;;;;;;12.85;9.48;;;;;;;17.12;51.47;101985.53;5018292;28;20829;-73
2021/10/09 13:32:49;;;;;;;14.02;9.20;;;;;;;17.19;50.63;101975.53;5035053;28;20050;-65
2021/10/09 13:35:42;;;;;;;12.48;8.50;;;;;;;17.16;50.56;101978.97;5034712;28;20104;-72
2021/10/09 13:38:11;;;;;;;13.30;8.70;;;;;;;17.09;50.37;101978.66;5034329;28;21181;-67
2021/10/09 13:40:40;;;;;;;13.48;9.40;;;;;;;17.04;51.09;101981.59;5035683;28;20063;-70
2021/10/09 13:43:12;;;;;;;12.32;9.05;;;;;;;17.16;51.17;101976.19;5034703;28;20045;-74
2021/10/09 13:45:45;;;;;;;17.17;8.73;;;;;;;17.37;50.70;101971.59;5034555;28;20041;-72
2021/10/09 13:48:13;;;;;;;17.58;8.55;;;;;;;17.38;50.91;101978.81;5035160;28;20061;-66